x

Sentry Shoal (46131) Wave Buoy

10:00 - Tue 24th Jan 2017 All times are PST. -8 hours from GMT.

  • Sig Wave height 0.3ft
  • Peak Period 5s
  • Wind
    2mph, 4mph gusts
  • Sea Temp 45°f
  • Ar Temp 40°f
  • Sea Pressure 1020.5mb
  • Sentry Shoal
  • Sentry Shoal

More Historic Weather Station data

Upgrade to MSW Pro to gain access to the past 30 days of data for over 8000 Wavebouys and Weather Stations around the globe.

Join Pro

Comparision Forecast

View Surf forecast
   
Ter 01/24 10:00 0.3ft 5s 2 4 mph 1020.5mb 45f 40f
9:00 0.3ft 2s 4 7 mph 1019.8mb 45f 38f
8:00 0.3ft 5s 4
mph
1019mb 45f 39f
7:00 0.3ft 5s 4 7 mph 1018.7mb 45f 40f
6:00 0.3ft 5s 4 7 mph 1018.5mb 45f 40f
5:00 0.3ft 5s 7 9 mph 1018.4mb 45f 40f
4:00 0.3ft 2s 7 9 mph 1018mb 45f 41f
3:00 0.3ft 2s 7 9 mph 1017.6mb 45f 41f
2:00 0.3ft 2s 9
mph
1017.2mb 45f 41f
1:00 0.3ft 2s 9
mph
1017.1mb 45f 41f
12:00 0.7ft 2s 9 11 mph 1016.7mb 45f 42f
Seg 01/23 11:00 0.7ft 2s 11 13 mph 1016.4mb 45f 42f
10:00 0.7ft 2s 11 13 mph 1015.8mb 45f 43f
9:00 0.3ft 2s 9 11 mph 1015.3mb 45f 43f
8:00 0.3ft 2s 9 11 mph 1015mb 45f 43f
7:00 0.3ft 2s 11 13 mph 1014.4mb 45f 45f
6:00 0.3ft 4s 9 11 mph 1013.8mb 45f 46f
5:00 0.3ft 4s 4
mph
1013.4mb 45f 46f
4:00 0.3ft 4s 2 4 mph 1012.9mb 45f 46f
3:00 0.3ft 2s 4
mph
1012.4mb 46f 46f
2:00 0.3ft 2s 7 9 mph 1012.1mb 46f 45f
1:00 0.7ft 2s 9
mph
1012mb 46f 44f
12:00 0.7ft 2s 9 11 mph 1011.9mb 46f 43f
11:00 0.7ft 2s 9 11 mph 1011.9mb 46f 42f
10:00 0.7ft 2s 11 13 mph 1011.5mb 45f 42f
9:00 0.7ft 2s 9 11 mph 1010.7mb 45f 42f
8:00 0.7ft 2s 9 11 mph 1009.8mb 45f 42f
7:00 0.7ft 2s 9 11 mph 1009.1mb 45f 42f
6:00 0.7ft 2s 11 13 mph 1008mb 46f 42f
5:00 0.7ft 2s 13
mph
1007.3mb 46f 43f
4:00 0.7ft 2s 9 11 mph 1006.7mb 46f 43f
3:00 0.3ft 2s 11
mph
1006.4mb 46f 43f
2:00 0.7ft 2s 9 11 mph 1005.7mb 46f 42f
1:00 0.7ft 2s 9
mph
1005.2mb 46f 43f
12:00 0.7ft 4s 7
mph
1004.7mb 46f 43f
Dom 01/22 11:00 1ft 5s 4 7 mph 1004.3mb 46f 44f
10:00 1.3ft 4s 2
mph
1004mb 46f 44f
9:00 1.6ft 4s 2 4 mph 1003.4mb 46f 44f
8:00 1.6ft 4s 9 11 mph 1002.8mb 46f 45f
7:00 2ft 5s 13 16 mph 1002.2mb 46f 45f
6:00 2.5ft 5s 16 18 mph 1001.6mb 46f 45f
5:00 3ft 5s 18 22 mph 1001.2mb 46f 44f
4:00 2.5ft 3s 11 13 mph 1000.7mb 46f 45f
3:00 1.3ft 2s 11 13 mph 1000.1mb 46f 44f
2:00 0.7ft 2s 18 25 mph 999.5mb 46f 44f
1:00 0.3ft 2s 9 11 mph 999mb 46f 44f
12:00 0.3ft 3s 7 9 mph 998.9mb 46f 44f
11:00 0.7ft 4s 9 11 mph 998.4mb 46f 44f
10:00 0.7ft 4s 4 7 mph 997.7mb 46f 43f
9:00 0.7ft 4s 9
mph
997mb 46f 44f
8:00 1.3ft 4s 4 9 mph 996.9mb 46f 44f
7:00 1.6ft 4s 4 7 mph 997.3mb 46f 46f
6:00 2ft 4s 11 13 mph 998.2mb 46f 46f
5:00 2ft 4s 16 18 mph 998.9mb 46f 46f
4:00 1.3ft 3s 13 18 mph 999.4mb 46f 46f
3:00 1.3ft 3s 16 18 mph 999.8mb 46f 46f
2:00 1ft 3s 11 13 mph 1000.3mb 46f 46f
1:00 1ft 3s 13
mph
1000.8mb 46f 45f
12:00 1ft 3s 13 16 mph 1000.8mb 46f 46f
Sáb 01/21 11:00 1ft 3s 11
mph
1000.6mb 46f 46f
10:00 0.7ft 2s 11 13 mph 1000.3mb 46f 45f
9:00 0.7ft 2s 13 16 mph 999.9mb 46f 46f
8:00 0.3ft 3s 9 11 mph 999.8mb 46f 46f
7:00 0.3ft 3s 7 9 mph 999.1mb 46f 45f
6:00 0.3ft 3s 4
mph
998.5mb 46f 45f
5:00 0.3ft 3s 4 7 mph 997.9mb 46f 45f
4:00 0.3ft 3s 4 7 mph 997.4mb 46f 45f
3:00 0.3ft 2s 4
mph
996.8mb 47f 45f
2:00 0.7ft 2s 4 7 mph 996mb 47f 44f
1:00 0.7ft 2s 9 11 mph 995.7mb 47f 44f
12:00 0.7ft 2s 9
mph
995.1mb 46f 44f
11:00 0.7ft 2s 11 13 mph 994.8mb 46f 44f
10:00 1ft 2s 11
mph
994.3mb 46f 44f
9:00 0.7ft 2s 11 13 mph 993.5mb 46f 44f
8:00 0.7ft 2s 11 13 mph 992.8mb 46f 43f
7:00 0.7ft 2s 11 13 mph 992.2mb 46f 43f
6:00 0.3ft 2s 9 11 mph 991.8mb 46f 43f
5:00 0.3ft 4s 9 11 mph 991.5mb 46f 44f
4:00 0.3ft 4s 4
mph
991.2mb 46f 43f
3:00 0.3ft 4s 2
mph
990.9mb 46f 44f
2:00 0.3ft 2s 2 4 mph 990.4mb 47f 44f
1:00 0.3ft 4s 4 7 mph 989.7mb 46f 44f
12:00 0.3ft 2s 4
mph
989.4mb 46f 44f
Sex 01/20 11:00 0.3ft 4s 4
mph
989.2mb 47f 44f
10:00 0.3ft 4s 9 11 mph 988.5mb 47f 44f
9:00 0.3ft 4s 4 7 mph 988.6mb 46f 45f
8:00 0.3ft 4s 4
mph
988.1mb 47f 45f